Time;durP1;ratioP1;P1;durP2;ratioP2;P2;SDS_P1;SDS_P2;PMS_P1;PMS_P2;Temp;Humidity;BMP_temperature;BMP_pressure;BME280_temperature;BME280_humidity;BME280_pressure;Samples;Min_cycle;Max_cycle;Signal;HPM_P1;HPM_P2
2022/01/20 00:00:20;;;;;;;7.15;3.00;;;4.70;86.90;;;;;;6044535;23;20369;-72
2022/01/20 00:02:55;;;;;;;4.70;2.30;;;4.70;86.90;;;;;;6050865;23;20415;-70
2022/01/20 00:05:36;;;;;;;7.10;3.03;;;4.80;86.80;;;;;;6051251;23;20394;-70
2022/01/20 00:08:11;;;;;;;5.03;2.50;;;4.80;86.90;;;;;;6074011;23;20473;-71
2022/01/20 00:27:31;;;;;;;4.72;2.65;;;4.80;86.80;;;;;;6007649;23;20286;-71
2022/01/20 00:30:24;;;;;;;6.35;2.83;;;4.90;86.80;;;;;;6051286;23;20023;-71
2022/01/20 00:32:58;;;;;;;5.85;2.97;;;4.80;86.80;;;;;;6048736;23;20487;-71
2022/01/20 00:35:29;;;;;;;5.88;2.38;;;4.80;86.90;;;;;;6070828;23;20018;-70
2022/01/20 00:37:55;;;;;;;6.95;2.58;;;4.80;86.90;;;;;;6075252;23;20442;-71
2022/01/20 00:40:24;;;;;;;5.07;2.40;;;4.80;87.00;;;;;;6051974;23;20042;-70
2022/01/20 00:42:51;;;;;;;5.10;2.58;;;4.80;86.90;;;;;;6052067;23;20081;-69
2022/01/20 00:45:19;;;;;;;4.40;2.70;;;4.80;87.00;;;;;;6051959;23;20027;-70
2022/01/20 00:47:46;;;;;;;5.63;2.60;;;4.80;87.10;;;;;;6071315;23;20029;-70
2022/01/20 00:50:13;;;;;;;4.18;2.35;;;4.80;87.20;;;;;;6047891;23;20033;-70
2022/01/20 00:52:40;;;;;;;5.38;2.65;;;4.80;87.20;;;;;;6047111;23;20019;-71
2022/01/20 00:55:08;;;;;;;7.28;2.88;;;4.80;87.20;;;;;;6046369;23;20023;-71
2022/01/20 00:57:35;;;;;;;5.75;2.55;;;4.80;87.20;;;;;;6048306;23;20027;-71
2022/01/20 01:00:04;;;;;;;5.88;2.55;;;4.90;87.20;;;;;;6049026;23;20033;-71
2022/01/20 01:02:33;;;;;;;6.75;2.55;;;4.80;87.20;;;;;;6048345;23;20261;-71
2022/01/20 01:05:00;;;;;;;4.60;2.75;;;4.90;87.20;;;;;;6050621;23;20027;-70
2022/01/20 01:07:47;;;;;;;5.45;2.53;;;4.90;87.20;;;;;;6069588;23;20451;-70
2022/01/20 01:10:17;;;;;;;5.07;2.28;;;4.90;87.20;;;;;;6070766;23;20026;-71
2022/01/20 01:12:49;;;;;;;4.53;2.50;;;4.90;87.20;;;;;;6050311;23;20102;-72
2022/01/20 01:15:20;;;;;;;5.38;2.55;;;4.90;87.10;;;;;;6049104;23;20109;-72
2022/01/20 01:20:56;;;;;;;5.35;2.67;;;4.90;87.10;;;;;;6047753;23;20121;-71
2022/01/20 01:23:22;;;;;;;5.63;2.25;;;4.90;87.10;;;;;;6071471;23;20176;-72
2022/01/20 01:25:49;;;;;;;3.65;2.03;;;4.90;87.10;;;;;;6050201;23;20019;-71
2022/01/20 01:28:16;;;;;;;5.85;2.60;;;4.90;87.10;;;;;;6023380;23;20049;-70
2022/01/20 01:31:06;;;;;;;6.95;2.97;;;4.90;87.20;;;;;;6022766;23;20102;-70
2022/01/20 01:33:37;;;;;;;3.97;2.08;;;4.90;87.20;;;;;;6024276;23;20378;-70
2022/01/20 01:36:06;;;;;;;4.93;2.03;;;4.90;87.20;;;;;;6024534;23;20023;-72
2022/01/20 01:38:38;;;;;;;4.18;2.38;;;4.90;87.20;;;;;;6019102;23;20058;-70
2022/01/20 01:41:09;;;;;;;5.05;2.25;;;4.90;87.20;;;;;;6023793;23;20031;-71
2022/01/20 01:43:38;;;;;;;4.13;2.17;;;4.90;87.30;;;;;;6020768;23;20028;-72
2022/01/20 01:46:05;;;;;;;6.28;2.40;;;4.90;87.40;;;;;;6022267;23;20023;-70
2022/01/20 01:48:37;;;;;;;4.85;2.65;;;4.90;87.30;;;;;;6021417;23;20049;-71
2022/01/20 01:51:04;;;;;;;3.05;1.73;;;4.90;87.40;;;;;;6024123;23;20033;-71
2022/01/20 01:53:31;;;;;;;6.57;2.50;;;4.90;87.40;;;;;;6022021;23;20050;-72
2022/01/20 01:55:58;;;;;;;4.43;2.20;;;4.90;87.40;;;;;;6022176;23;20245;-70
2022/01/20 01:58:26;;;;;;;6.38;2.30;;;4.90;87.40;;;;;;6021845;23;20024;-71
2022/01/20 02:01:25;;;;;;;3.95;2.58;;;4.90;87.40;;;;;;6012857;23;20058;-71
2022/01/20 02:04:00;;;;;;;5.20;2.07;;;4.90;87.30;;;;;;6023889;23;20016;-71
2022/01/20 02:09:40;;;;;;;4.63;1.88;;;4.90;87.40;;;;;;6004451;23;20043;-72
2022/01/20 02:17:57;;;;;;;4.68;1.95;;;4.90;87.40;;;;;;3746718;23;10001620;-71
2022/01/20 02:20:26;;;;;;;4.43;1.85;;;5.00;87.30;;;;;;6018892;23;20111;-71
2022/01/20 02:22:58;;;;;;;4.90;2.30;;;4.90;87.30;;;;;;6019728;23;20296;-72
2022/01/20 02:25:33;;;;;;;5.38;2.13;;;4.90;87.40;;;;;;6019992;23;20034;-72
2022/01/20 02:28:03;;;;;;;4.78;2.33;;;4.90;87.40;;;;;;6047492;23;20030;-70
2022/01/20 02:30:31;;;;;;;5.78;2.55;;;4.90;87.40;;;;;;6073685;23;20708;-70
2022/01/20 02:33:01;;;;;;;6.15;2.75;;;5.00;87.30;;;;;;6052195;23;20403;-70
2022/01/20 02:35:33;;;;;;;5.73;2.57;;;5.00;87.30;;;;;;6051076;23;20034;-71
2022/01/20 02:38:08;;;;;;;5.97;2.63;;;5.00;87.30;;;;;;6075971;23;20411;-71
2022/01/20 02:46:06;;;;;;;6.18;2.45;;;4.90;87.10;;;;;;6074610;23;20022;-72
2022/01/20 02:48:34;;;;;;;4.38;2.28;;;4.90;87.10;;;;;;6049505;23;20090;-71
2022/01/20 02:51:02;;;;;;;4.43;2.35;;;4.90;87.10;;;;;;6071198;23;20034;-71
2022/01/20 02:53:29;;;;;;;4.50;2.17;;;4.90;87.20;;;;;;6070442;23;20415;-71
2022/01/20 02:55:56;;;;;;;4.38;2.13;;;4.80;87.20;;;;;;6050205;23;20098;-71
2022/01/20 02:58:23;;;;;;;4.30;2.45;;;4.90;87.30;;;;;;6046925;23;20134;-71
2022/01/20 03:00:51;;;;;;;5.43;2.35;;;4.90;87.30;;;;;;6070103;23;20014;-72
2022/01/20 03:03:18;;;;;;;5.97;2.90;;;4.80;87.30;;;;;;6047422;23;20344;-70
2022/01/20 03:05:45;;;;;;;3.45;1.63;;;4.80;87.40;;;;;;6069108;23;20521;-73
2022/01/20 03:08:13;;;;;;;4.50;2.25;;;4.80;87.30;;;;;;6073336;23;20382;-73
2022/01/20 03:10:41;;;;;;;5.13;2.20;;;4.80;87.30;;;;;;6050043;23;20050;-72
2022/01/20 03:13:08;;;;;;;4.63;2.00;;;4.90;87.20;;;;;;6073433;23;20406;-73
2022/01/20 03:15:35;;;;;;;5.25;2.55;;;4.90;87.10;;;;;;6052367;23;20042;-72
2022/01/20 03:18:04;;;;;;;5.25;2.45;;;4.90;87.00;;;;;;6050105;23;20025;-72
2022/01/20 03:20:33;;;;;;;4.68;2.03;;;4.80;86.90;;;;;;6073187;23;20029;-73
2022/01/20 03:23:00;;;;;;;8.70;2.38;;;4.80;86.80;;;;;;6048026;23;20053;-71
2022/01/20 03:25:29;;;;;;;4.45;2.35;;;4.80;86.80;;;;;;6070354;23;20164;-72
2022/01/20 03:27:58;;;;;;;5.03;2.58;;;4.80;86.80;;;;;;6051136;23;20396;-70
2022/01/20 03:30:25;;;;;;;4.72;2.15;;;4.80;86.80;;;;;;6050150;23;20026;-72
2022/01/20 03:32:54;;;;;;;5.10;2.50;;;4.70;86.90;;;;;;6074538;23;20023;-71
2022/01/20 03:35:21;;;;;;;5.80;2.10;;;4.70;86.80;;;;;;6049927;23;20173;-71
2022/01/20 03:38:05;;;;;;;3.70;1.52;;;4.70;86.80;;;;;;6073968;23;20086;-72
2022/01/20 03:40:34;;;;;;;4.55;2.05;;;4.70;86.70;;;;;;6073478;23;20022;-71
2022/01/20 03:43:01;;;;;;;4.32;2.10;;;4.70;86.80;;;;;;6076199;23;20107;-73
2022/01/20 03:45:28;;;;;;;6.07;2.10;;;4.70;86.80;;;;;;6074974;23;20030;-71
2022/01/20 03:48:05;;;;;;;4.30;1.90;;;4.70;86.80;;;;;;6052555;23;20510;-71
2022/01/20 03:53:17;;;;;;;5.70;2.10;;;4.70;86.90;;;;;;6053502;23;20023;-71
2022/01/20 03:55:47;;;;;;;6.60;1.83;;;4.60;86.90;;;;;;6075940;23;20469;-72
2022/01/20 03:58:15;;;;;;;5.72;2.28;;;4.60;86.90;;;;;;6075465;23;20022;-71
2022/01/20 04:00:45;;;;;;;4.07;2.25;;;4.60;86.90;;;;;;6049026;23;20022;-71
2022/01/20 04:03:23;;;;;;;3.95;1.92;;;4.60;86.90;;;;;;6074898;23;20257;-71
2022/01/20 04:06:02;;;;;;;5.05;2.00;;;4.60;86.80;;;;;;6075695;23;20026;-71
2022/01/20 04:08:36;;;;;;;4.10;1.98;;;4.60;86.80;;;;;;6074413;23;20053;-72
2022/01/20 04:11:06;;;;;;;5.85;2.17;;;4.60;86.70;;;;;;6072304;23;20359;-71
2022/01/20 04:13:33;;;;;;;3.72;1.70;;;4.60;86.70;;;;;;6072058;23;20030;-71
2022/01/20 04:16:12;;;;;;;6.00;2.20;;;4.60;86.70;;;;;;5927234;23;21540;-72
2022/01/20 04:18:40;;;;;;;5.60;2.25;;;4.60;86.80;;;;;;1228045;23;10001970;-70
2022/01/20 04:21:08;;;;;;;5.28;2.40;;;4.60;86.70;;;;;;6077729;23;20029;-71
2022/01/20 04:23:34;;;;;;;5.82;2.15;;;4.60;86.70;;;;;;6055536;23;20030;-71
2022/01/20 04:26:01;;;;;;;7.25;2.22;;;4.60;86.70;;;;;;6078083;23;20031;-69
2022/01/20 04:28:30;;;;;;;6.95;1.80;;;4.60;86.70;;;;;;6078366;23;20036;-71
2022/01/20 04:30:57;;;;;;;4.55;1.98;;;4.60;86.70;;;;;;6077462;23;20026;-71
2022/01/20 04:33:24;;;;;;;6.60;1.77;;;4.60;86.70;;;;;;6077758;23;20390;-73
2022/01/20 04:35:51;;;;;;;5.88;2.30;;;4.60;86.60;;;;;;6056505;23;20121;-71
2022/01/20 04:38:18;;;;;;;5.70;2.40;;;4.60;86.60;;;;;;6053048;23;20033;-72
2022/01/20 04:40:45;;;;;;;3.63;1.75;;;4.50;86.50;;;;;;6078783;23;20103;-69
2022/01/20 04:43:12;;;;;;;7.70;1.95;;;4.50;86.40;;;;;;6053205;23;20023;-72
2022/01/20 04:45:46;;;;;;;5.18;2.38;;;4.50;86.30;;;;;;6054044;23;20093;-71
2022/01/20 04:48:20;;;;;;;8.05;2.67;;;4.40;86.20;;;;;;6070546;23;20385;-71
2022/01/20 04:59:02;;;;;;;3.92;1.95;;;4.30;85.70;;;;;;6073698;23;20339;-70
2022/01/20 05:01:31;;;;;;;6.47;2.10;;;4.30;85.70;;;;;;6070895;23;20050;-70
2022/01/20 05:04:15;;;;;;;6.95;2.05;;;4.30;85.70;;;;;;6071859;23;20037;-69
2022/01/20 05:07:01;;;;;;;4.90;1.95;;;4.30;85.70;;;;;;6073441;23;20019;-71
2022/01/20 05:09:29;;;;;;;5.50;2.08;;;4.30;85.60;;;;;;6071826;23;20422;-71
2022/01/20 05:12:01;;;;;;;4.18;1.70;;;4.30;85.60;;;;;;6073578;23;20022;-70
2022/01/20 05:14:29;;;;;;;5.45;1.77;;;4.30;85.60;;;;;;6072424;23;20524;-72
2022/01/20 05:17:00;;;;;;;5.32;2.15;;;4.30;85.70;;;;;;6072734;23;20022;-72
2022/01/20 05:19:32;;;;;;;4.20;1.83;;;4.30;85.70;;;;;;6048919;23;20022;-70
2022/01/20 05:22:00;;;;;;;5.40;1.67;;;4.30;85.80;;;;;;6074497;23;20022;-71
2022/01/20 05:24:34;;;;;;;4.80;1.38;;;4.30;85.80;;;;;;6075038;23;20022;-70
2022/01/20 05:27:01;;;;;;;3.88;1.40;;;4.20;85.90;;;;;;6073864;23;20031;-70
2022/01/20 05:29:29;;;;;;;4.15;2.17;;;4.30;85.90;;;;;;6050746;23;20026;-72
2022/01/20 05:31:58;;;;;;;5.43;1.63;;;4.30;85.90;;;;;;6049181;23;20022;-71
2022/01/20 05:34:25;;;;;;;4.10;1.70;;;4.30;85.90;;;;;;6073751;23;20094;-71
2022/01/20 05:36:53;;;;;;;6.00;2.22;;;4.30;86.00;;;;;;6050556;23;20133;-73
2022/01/20 05:39:21;;;;;;;4.43;1.60;;;4.40;85.90;;;;;;6076563;23;20035;-71
2022/01/20 05:41:48;;;;;;;3.13;1.52;;;4.30;86.00;;;;;;6079719;23;20018;-72
2022/01/20 05:44:23;;;;;;;3.65;1.77;;;4.30;86.00;;;;;;6054552;23;20320;-71
2022/01/20 05:46:53;;;;;;;7.30;2.40;;;4.30;86.00;;;;;;6054260;23;20026;-71
2022/01/20 05:49:53;;;;;;;8.35;1.95;;;4.40;86.00;;;;;;6041337;23;20037;-71
2022/01/20 05:52:21;;;;;;;4.60;1.65;;;4.30;86.00;;;;;;6048991;23;20535;-70
2022/01/20 05:54:50;;;;;;;4.55;1.95;;;4.40;85.90;;;;;;6052188;23;20019;-71
2022/01/20 05:57:18;;;;;;;5.50;1.83;;;4.40;85.90;;;;;;6041177;23;20520;-71
2022/01/20 05:59:51;;;;;;;7.72;2.08;;;4.30;85.90;;;;;;6051796;23;20082;-70
2022/01/20 06:02:36;;;;;;;4.50;2.10;;;4.40;85.90;;;;;;6071543;23;20033;-70
2022/01/20 06:05:08;;;;;;;8.90;2.28;;;4.40;85.80;;;;;;6048047;23;20034;-70
2022/01/20 06:07:36;;;;;;;5.35;2.47;;;4.40;85.70;;;;;;6050894;23;20026;-71
2022/01/20 06:10:03;;;;;;;3.65;1.45;;;4.40;85.70;;;;;;6074522;23;20027;-70
2022/01/20 06:12:31;;;;;;;5.70;1.95;;;4.40;85.60;;;;;;6049857;23;20316;-70
2022/01/20 06:14:58;;;;;;;4.53;2.53;;;4.40;85.50;;;;;;6075689;23;20126;-72
2022/01/20 06:17:28;;;;;;;8.15;1.85;;;4.40;85.40;;;;;;6052606;23;20133;-71
2022/01/20 06:20:00;;;;;;;4.20;1.58;;;4.30;85.20;;;;;;6050307;23;20396;-71
2022/01/20 06:22:29;;;;;;;3.55;1.55;;;4.30;85.20;;;;;;6076233;23;20023;-71
2022/01/20 06:24:56;;;;;;;3.78;1.55;;;4.30;85.20;;;;;;6048280;23;20023;-71
2022/01/20 06:27:23;;;;;;;7.00;2.55;;;4.40;85.20;;;;;;5985435;23;20030;-71
2022/01/20 06:29:50;;;;;;;0.80;0.20;;;4.40;85.30;;;;;;1152086;23;10002052;-71
2022/01/20 06:32:17;;;;;;;5.70;1.95;;;4.40;85.30;;;;;;6069346;23;20060;-71
2022/01/20 06:34:44;;;;;;;8.43;2.22;;;4.40;85.20;;;;;;6049611;23;20078;-71
2022/01/20 06:37:11;;;;;;;7.85;2.25;;;4.40;85.20;;;;;;6049316;23;20097;-70
2022/01/20 06:39:40;;;;;;;4.10;1.75;;;4.40;85.20;;;;;;6071762;23;20026;-71
2022/01/20 06:42:08;;;;;;;7.10;2.38;;;4.40;85.20;;;;;;6050931;23;20027;-71
2022/01/20 06:44:35;;;;;;;3.80;1.65;;;4.40;85.20;;;;;;6050314;23;20386;-70
2022/01/20 06:47:02;;;;;;;5.40;2.05;;;4.40;85.30;;;;;;6047634;23;20122;-71
2022/01/20 06:49:33;;;;;;;4.78;1.77;;;4.40;85.30;;;;;;6048913;23;20336;-72
2022/01/20 06:52:06;;;;;;;6.05;1.77;;;4.50;85.30;;;;;;6049971;23;20082;-72
2022/01/20 06:54:35;;;;;;;5.45;1.52;;;4.50;85.30;;;;;;6048369;23;20490;-71
2022/01/20 06:57:06;;;;;;;5.35;1.70;;;4.50;85.30;;;;;;6048416;23;20022;-71
2022/01/20 06:59:33;;;;;;;8.30;1.77;;;4.50;85.30;;;;;;6048850;23;20026;-71
2022/01/20 07:02:01;;;;;;;4.18;1.73;;;4.50;85.30;;;;;;6051502;23;20179;-70
2022/01/20 07:04:34;;;;;;;6.03;1.33;;;4.50;85.30;;;;;;6049155;23;20034;-70
2022/01/20 07:07:09;;;;;;;5.00;1.58;;;4.50;85.30;;;;;;6049780;23;20425;-71
2022/01/20 07:09:45;;;;;;;7.97;2.78;;;4.50;85.30;;;;;;6050842;23;20031;-71
2022/01/20 07:12:41;;;;;;;7.63;1.80;;;4.50;85.30;;;;;;6049869;23;20049;-71
2022/01/20 07:15:09;;;;;;;7.65;1.70;;;4.50;85.30;;;;;;6075340;23;20342;-71
2022/01/20 07:17:36;;;;;;;5.93;1.83;;;4.60;85.30;;;;;;6050473;23;20023;-71
2022/01/20 07:20:04;;;;;;;7.47;1.85;;;4.60;85.30;;;;;;6074071;23;20049;-70
2022/01/20 07:22:33;;;;;;;10.13;1.67;;;4.60;85.40;;;;;;6050521;23;20038;-71
2022/01/20 07:25:03;;;;;;;6.38;2.05;;;4.60;85.50;;;;;;6074311;23;20477;-70
2022/01/20 07:27:55;;;;;;;7.80;1.58;;;4.50;85.50;;;;;;6050796;23;20027;-70
2022/01/20 07:30:22;;;;;;;7.15;1.73;;;4.60;85.50;;;;;;6072440;23;20085;-71
2022/01/20 07:32:49;;;;;;;5.38;2.00;;;4.60;85.60;;;;;;6048945;23;20029;-70
2022/01/20 07:35:20;;;;;;;5.30;2.15;;;4.60;85.60;;;;;;6048069;23;20046;-71
2022/01/20 07:37:48;;;;;;;6.22;2.45;;;4.60;85.60;;;;;;6047759;23;20247;-70
2022/01/20 07:40:15;;;;;;;4.32;1.48;;;4.60;85.60;;;;;;6048734;23;20436;-72
2022/01/20 07:42:42;;;;;;;7.47;2.28;;;4.60;85.60;;;;;;6051289;23;20094;-71
2022/01/20 07:45:21;;;;;;;6.20;2.20;;;4.60;85.60;;;;;;6049083;23;20034;-71
2022/01/20 07:48:11;;;;;;;8.80;2.90;;;4.60;85.60;;;;;;6073177;23;20023;-70
2022/01/20 07:50:39;;;;;;;8.55;1.85;;;4.60;85.60;;;;;;6047361;23;20022;-72
2022/01/20 07:53:06;;;;;;;12.65;3.08;;;4.60;85.70;;;;;;6073715;23;20082;-70
2022/01/20 07:55:34;;;;;;;5.97;2.65;;;4.70;85.70;;;;;;6048471;23;20027;-71
2022/01/20 07:58:04;;;;;;;5.85;3.78;;;4.70;85.70;;;;;;6049277;23;20797;-71
2022/01/20 08:00:41;;;;;;;3.83;1.58;;;4.70;85.70;;;;;;6045449;23;20819;-71
2022/01/20 08:03:08;;;;;;;4.85;2.35;;;4.70;85.80;;;;;;6072179;23;20117;-70
2022/01/20 08:05:45;;;;;;;5.30;1.65;;;4.70;85.80;;;;;;6050847;23;20026;-71
2022/01/20 08:08:12;;;;;;;4.63;1.83;;;4.70;85.80;;;;;;6073837;23;20038;-71
2022/01/20 08:10:40;;;;;;;3.65;1.90;;;4.70;85.90;;;;;;6048310;23;20038;-72
2022/01/20 08:13:07;;;;;;;6.63;1.70;;;4.70;85.80;;;;;;6071647;23;20038;-71
2022/01/20 08:15:35;;;;;;;10.77;1.92;;;4.70;85.90;;;;;;6015872;23;20624;-71
2022/01/20 08:18:07;;;;;;;4.60;1.45;;;4.70;85.80;;;;;;1562437;23;10023377;-72
2022/01/20 08:20:38;;;;;;;4.60;1.88;;;4.70;85.80;;;;;;4796413;23;10001430;-71
2022/01/20 08:23:07;;;;;;;10.60;3.15;;;4.70;85.70;;;;;;6071267;23;20841;-70
2022/01/20 08:25:34;;;;;;;5.32;2.35;;;4.80;85.70;;;;;;6070625;23;20031;-71
2022/01/20 08:28:02;;;;;;;5.50;1.60;;;4.80;85.60;;;;;;6023362;23;1133901;-70
2022/01/20 08:30:34;;;;;;;7.15;2.30;;;4.80;85.60;;;;;;6072350;23;20054;-71
2022/01/20 08:33:01;;;;;;;3.45;1.20;;;4.80;85.50;;;;;;6047791;23;20042;-72
2022/01/20 08:35:40;;;;;;;4.90;2.13;;;4.90;85.40;;;;;;6072013;23;20042;-70
2022/01/20 08:38:19;;;;;;;3.00;1.63;;;4.90;85.30;;;;;;6047481;23;20033;-71
2022/01/20 08:40:47;;;;;;;4.80;1.20;;;4.90;85.20;;;;;;6049663;23;20047;-72
2022/01/20 08:43:14;;;;;;;3.85;1.27;;;4.90;85.30;;;;;;6049714;23;20039;-72
2022/01/20 08:45:44;;;;;;;5.88;1.63;;;4.90;85.30;;;;;;6050657;23;20055;-72
2022/01/20 08:48:13;;;;;;;4.00;1.20;;;4.90;85.20;;;;;;6049657;23;20488;-71
2022/01/20 08:51:01;;;;;;;6.20;2.30;;;4.90;85.20;;;;;;6051214;23;20026;-71
2022/01/20 08:53:31;;;;;;;5.15;1.48;;;4.90;85.20;;;;;;6050410;23;20590;-71
2022/01/20 08:55:59;;;;;;;4.88;2.28;;;4.90;85.20;;;;;;6050377;23;20087;-72
2022/01/20 08:58:26;;;;;;;6.60;2.38;;;4.90;85.10;;;;;;6049362;23;20109;-73
2022/01/20 09:00:53;;;;;;;6.35;1.98;;;4.90;85.00;;;;;;6072969;23;20362;-72
2022/01/20 09:03:22;;;;;;;5.63;2.75;;;4.90;84.70;;;;;;6073834;23;20077;-72
2022/01/20 09:05:49;;;;;;;3.25;1.08;;;4.90;84.60;;;;;;6073754;23;20014;-72
2022/01/20 09:08:25;;;;;;;5.35;1.38;;;4.80;84.70;;;;;;6047801;23;20417;-71
2022/01/20 09:10:57;;;;;;;5.68;1.00;;;4.70;84.70;;;;;;6049190;23;20027;-71
2022/01/20 09:16:14;;;;;;;4.20;1.95;;;4.80;84.50;;;;;;6073616;23;20114;-72
2022/01/20 09:19:01;;;;;;;1.02;0.40;;;4.80;84.50;;;;;;6040701;23;20770;-71
2022/01/20 09:21:29;;;;;;;1.77;0.55;;;4.90;84.30;;;;;;6073462;23;20033;-71
2022/01/20 09:24:00;;;;;;;0.68;0.38;;;4.80;84.10;;;;;;6074442;23;20026;-71
2022/01/20 09:26:28;;;;;;;1.70;0.60;;;4.90;84.10;;;;;;6048744;23;20033;-71
2022/01/20 09:28:58;;;;;;;1.30;0.35;;;4.90;83.90;;;;;;6049989;23;20360;-71
2022/01/20 09:31:32;;;;;;;0.75;0.30;;;4.90;83.80;;;;;;6049409;23;20026;-71
2022/01/20 09:33:59;;;;;;;3.70;0.73;;;4.90;82.60;;;;;;6050013;23;20349;-72
2022/01/20 09:36:29;;;;;;;;;;;4.90;81.90;;;;;;6049689;23;20110;-70
2022/01/20 09:38:57;;;;;;;0.73;0.40;;;4.80;81.40;;;;;;6051347;23;19921;-70
2022/01/20 09:41:45;;;;;;;0.60;0.20;;;4.80;81.50;;;;;;6072308;23;20268;-70
2022/01/20 09:44:13;;;;;;;2.28;0.25;;;4.70;81.30;;;;;;6073721;23;20031;-71
2022/01/20 09:46:41;;;;;;;0.68;0.50;;;4.70;81.20;;;;;;6051313;23;20026;-70
2022/01/20 09:49:16;;;;;;;1.00;0.30;;;4.70;81.40;;;;;;6049509;23;20081;-70
2022/01/20 09:51:45;;;;;;;3.60;0.55;;;4.60;81.30;;;;;;6049311;23;20027;-71
2022/01/20 09:54:19;;;;;;;6.43;0.90;;;4.60;81.30;;;;;;6048945;23;20029;-71
2022/01/20 09:56:47;;;;;;;2.83;0.80;;;4.60;81.30;;;;;;6050932;23;20019;-70
2022/01/20 09:59:17;;;;;;;4.32;1.35;;;4.60;81.30;;;;;;6049295;23;20457;-71
2022/01/20 10:01:47;;;;;;;3.67;1.20;;;4.60;81.10;;;;;;6071003;23;20638;-69
2022/01/20 10:04:41;;;;;;;2.30;0.90;;;4.50;80.90;;;;;;6048376;23;20023;-70
2022/01/20 10:07:16;;;;;;;6.00;1.95;;;4.50;80.80;;;;;;6049900;23;20019;-70
2022/01/20 10:09:52;;;;;;;3.28;1.35;;;4.40;80.80;;;;;;6049176;23;20060;-71
2022/01/20 10:12:29;;;;;;;2.45;1.05;;;4.40;80.90;;;;;;6073267;23;20033;-71
2022/01/20 10:15:10;;;;;;;1.05;0.38;;;4.50;81.00;;;;;;6048948;23;20057;-71
2022/01/20 10:18:26;;;;;;;0.47;0.24;;;4.50;80.60;;;;;;3136010;23;10280279;-72
2022/01/20 10:21:06;;;;;;;1.15;0.25;;;4.50;80.40;;;;;;4799033;23;10001336;-71
2022/01/20 10:23:52;;;;;;;3.15;0.88;;;4.50;80.40;;;;;;6050342;23;20027;-70
2022/01/20 10:26:39;;;;;;;2.05;0.30;;;4.60;80.50;;;;;;6074526;23;20367;-70
2022/01/20 10:29:12;;;;;;;3.65;0.85;;;4.70;80.50;;;;;;6051484;23;20027;-70
2022/01/20 10:31:42;;;;;;;1.17;0.17;;;4.80;80.50;;;;;;6052297;23;20105;-71
2022/01/20 10:34:28;;;;;;;2.90;0.30;;;4.80;80.00;;;;;;6074830;23;20479;-71
2022/01/20 10:36:59;;;;;;;0.93;0.70;;;4.80;79.50;;;;;;6050246;23;20029;-71
2022/01/20 10:39:42;;;;;;;1.75;0.63;;;4.90;79.50;;;;;;6049916;23;20086;-72
2022/01/20 10:42:11;;;;;;;2.20;0.20;;;4.90;79.10;;;;;;6051911;23;20462;-72
2022/01/20 10:44:46;;;;;;;2.10;0.28;;;4.90;79.50;;;;;;6074693;23;20046;-70
2022/01/20 10:47:15;;;;;;;4.78;0.70;;;5.00;79.20;;;;;;6072496;23;20022;-72
2022/01/20 10:49:44;;;;;;;7.53;0.63;;;5.00;78.80;;;;;;6050970;23;20027;-70
2022/01/20 10:52:13;;;;;;;1.27;0.32;;;5.10;78.80;;;;;;6074041;23;20023;-69
2022/01/20 10:54:43;;;;;;;1.85;0.30;;;5.10;78.70;;;;;;6074376;23;20026;-72
2022/01/20 10:57:16;;;;;;;3.90;1.02;;;5.10;78.70;;;;;;6049602;23;20022;-70
2022/01/20 10:59:50;;;;;;;0.57;0.20;;;5.20;78.40;;;;;;6076201;23;20473;-72
2022/01/20 11:02:20;;;;;;;1.85;0.50;;;5.20;78.30;;;;;;6048026;23;20038;-71
2022/01/20 11:04:48;;;;;;;2.88;0.28;;;5.20;78.50;;;;;;6051387;23;20453;-71
2022/01/20 11:07:16;;;;;;;2.00;0.45;;;5.20;78.30;;;;;;6073550;23;20467;-70
2022/01/20 11:09:58;;;;;;;2.38;0.43;;;5.30;78.00;;;;;;6074284;23;20027;-71
2022/01/20 11:12:47;;;;;;;3.40;0.50;;;5.20;77.30;;;;;;6044711;23;20085;-71
2022/01/20 11:15:24;;;;;;;3.67;0.22;;;5.20;76.80;;;;;;6074947;23;20042;-71
2022/01/20 11:17:55;;;;;;;2.47;1.02;;;5.20;76.70;;;;;;6073927;23;20098;-71
2022/01/20 11:20:26;;;;;;;1.15;0.75;;;5.20;76.50;;;;;;6049135;23;20029;-71
2022/01/20 11:22:56;;;;;;;1.48;0.40;;;5.20;76.60;;;;;;6048995;23;20023;-71
2022/01/20 11:25:30;;;;;;;1.35;0.32;;;5.30;76.50;;;;;;6071243;23;20057;-72
2022/01/20 11:28:08;;;;;;;1.20;0.43;;;5.30;76.50;;;;;;6048151;23;20082;-71
2022/01/20 11:31:09;;;;;;;1.63;0.45;;;5.30;75.80;;;;;;6037029;23;20058;-71
2022/01/20 11:33:51;;;;;;;1.15;0.63;;;5.30;75.30;;;;;;6050180;23;20333;-71
2022/01/20 11:36:23;;;;;;;2.95;0.75;;;5.30;75.00;;;;;;6071957;23;20103;-71
2022/01/20 11:38:53;;;;;;;3.30;0.68;;;5.30;74.70;;;;;;6049990;23;20025;-72
2022/01/20 11:41:21;;;;;;;4.00;0.82;;;5.30;74.60;;;;;;6049391;23;20369;-71
2022/01/20 11:43:50;;;;;;;2.28;0.45;;;5.20;74.90;;;;;;6049773;23;20054;-71
2022/01/20 11:46:21;;;;;;;11.50;1.17;;;5.20;74.80;;;;;;6050409;23;20502;-70
2022/01/20 11:48:59;;;;;;;2.65;0.75;;;5.20;74.30;;;;;;6050166;23;20018;-69
2022/01/20 11:51:28;;;;;;;1.30;0.40;;;5.00;74.30;;;;;;6049536;23;20396;-72
2022/01/20 11:53:58;;;;;;;5.90;0.90;;;5.00;74.10;;;;;;6048986;23;20022;-70
2022/01/20 11:56:33;;;;;;;3.67;0.67;;;5.00;74.10;;;;;;6049228;23;20033;-71
2022/01/20 11:59:00;;;;;;;3.38;0.65;;;4.90;74.10;;;;;;6050996;23;20023;-70
2022/01/20 12:01:30;;;;;;;6.72;1.25;;;5.00;74.10;;;;;;6048681;23;20029;-72
2022/01/20 12:03:58;;;;;;;5.70;0.47;;;5.00;73.20;;;;;;6054936;23;20605;-72
2022/01/20 12:06:46;;;;;;;2.08;0.40;;;5.00;73.10;;;;;;6054140;23;20419;-70
2022/01/20 12:09:17;;;;;;;2.10;0.40;;;4.90;72.40;;;;;;6055892;23;20411;-71
2022/01/20 12:11:46;;;;;;;1.77;0.88;;;5.00;71.90;;;;;;6050861;23;20051;-71
2022/01/20 12:14:14;;;;;;;4.03;0.73;;;5.00;71.70;;;;;;6051037;23;20022;-73
2022/01/20 12:17:05;;;;;;;2.67;0.43;;;5.00;71.60;;;;;;3293084;23;10003301;-72
2022/01/20 12:19:32;;;;;;;3.53;0.60;;;5.10;70.70;;;;;;4381939;23;10001100;-71
2022/01/20 12:21:59;;;;;;;5.65;1.15;;;5.00;70.60;;;;;;6051484;23;20137;-71
2022/01/20 12:24:26;;;;;;;1.85;0.57;;;5.10;70.50;;;;;;6051630;23;20344;-70
2022/01/20 12:26:53;;;;;;;3.10;0.73;;;5.10;71.10;;;;;;6051222;23;20022;-72
2022/01/20 12:29:20;;;;;;;0.88;0.28;;;5.10;71.00;;;;;;6073852;23;20390;-71
2022/01/20 12:31:51;;;;;;;2.17;0.47;;;5.20;71.10;;;;;;6051035;23;20023;-71
2022/01/20 12:34:20;;;;;;;2.20;0.57;;;5.20;70.80;;;;;;6052343;23;20038;-73
2022/01/20 12:36:54;;;;;;;2.25;0.40;;;5.20;70.60;;;;;;6051716;23;20018;-71
2022/01/20 12:39:28;;;;;;;2.83;0.90;;;5.30;70.70;;;;;;6050665;23;20440;-70
2022/01/20 12:41:56;;;;;;;2.33;0.60;;;5.30;70.60;;;;;;6051610;23;20450;-73
2022/01/20 12:44:24;;;;;;;1.67;0.63;;;5.30;70.30;;;;;;6050504;23;20023;-70
2022/01/20 12:46:51;;;;;;;2.38;0.50;;;5.30;70.80;;;;;;6050541;23;20350;-71
2022/01/20 12:49:20;;;;;;;1.63;0.75;;;5.20;70.80;;;;;;6050704;23;20098;-71
2022/01/20 12:51:50;;;;;;;6.45;0.80;;;5.10;71.10;;;;;;6050564;23;20019;-71
2022/01/20 12:54:21;;;;;;;2.47;0.70;;;5.00;71.30;;;;;;6049493;23;20098;-70
2022/01/20 12:56:49;;;;;;;3.17;0.80;;;4.90;72.00;;;;;;6051354;23;20019;-72
2022/01/20 12:59:20;;;;;;;3.83;0.73;;;5.00;72.20;;;;;;6049683;23;20027;-71
2022/01/20 13:01:48;;;;;;;4.82;1.05;;;4.90;72.30;;;;;;6050592;23;20030;-69
2022/01/20 13:04:18;;;;;;;6.05;0.75;;;4.90;72.40;;;;;;6053665;23;20230;-71
2022/01/20 13:06:52;;;;;;;2.55;0.73;;;5.00;72.40;;;;;;6054360;23;20346;-71
2022/01/20 13:09:22;;;;;;;1.27;0.38;;;5.00;72.40;;;;;;6053604;23;20106;-70
2022/01/20 13:11:57;;;;;;;1.63;0.25;;;5.00;72.10;;;;;;6054364;23;20836;-72
2022/01/20 13:14:35;;;;;;;3.45;0.63;;;5.00;71.70;;;;;;6053686;23;20023;-70
2022/01/20 13:17:04;;;;;;;3.88;0.47;;;5.10;71.50;;;;;;6054729;23;20054;-71
2022/01/20 13:19:36;;;;;;;2.75;0.55;;;5.00;71.40;;;;;;6053928;23;20572;-72
2022/01/20 13:22:07;;;;;;;2.15;0.40;;;5.00;71.00;;;;;;6056107;23;20447;-72
2022/01/20 13:24:36;;;;;;;3.28;0.55;;;5.00;71.10;;;;;;6055027;23;20030;-70
2022/01/20 13:27:07;;;;;;;2.95;0.63;;;5.00;71.20;;;;;;6055425;23;20039;-71
2022/01/20 13:29:43;;;;;;;1.00;0.35;;;5.00;71.00;;;;;;6077137;23;20027;-72
2022/01/20 13:32:11;;;;;;;1.60;0.35;;;5.00;70.90;;;;;;6056199;23;20023;-72
2022/01/20 13:34:38;;;;;;;2.92;0.52;;;4.90;71.10;;;;;;6055528;23;20450;-70
2022/01/20 13:37:14;;;;;;;2.15;0.45;;;4.90;71.30;;;;;;6055885;23;20347;-72
2022/01/20 13:39:42;;;;;;;5.78;0.47;;;4.90;71.30;;;;;;6057345;23;20491;-71
2022/01/20 13:42:23;;;;;;;2.15;0.40;;;4.90;71.30;;;;;;6058086;23;20066;-70
2022/01/20 13:45:12;;;;;;;3.83;0.68;;;5.00;71.20;;;;;;6056931;23;20102;-71
2022/01/20 13:47:54;;;;;;;1.52;0.30;;;4.90;71.20;;;;;;6057199;23;20030;-72
2022/01/20 13:50:24;;;;;;;4.25;0.50;;;4.90;71.00;;;;;;6055280;23;20027;-70
2022/01/20 13:52:52;;;;;;;2.47;0.63;;;5.00;70.50;;;;;;6057112;23;20026;-71
2022/01/20 13:55:25;;;;;;;2.90;0.30;;;4.90;69.90;;;;;;6055854;23;20027;-71
2022/01/20 13:57:52;;;;;;;2.92;0.70;;;4.90;69.80;;;;;;6054109;23;20555;-72
2022/01/20 14:00:24;;;;;;;1.45;0.50;;;4.90;70.20;;;;;;6049685;23;20129;-71
2022/01/20 14:02:51;;;;;;;3.03;0.50;;;4.90;70.70;;;;;;6056321;23;20077;-71
2022/01/20 14:05:20;;;;;;;4.57;0.55;;;4.80;71.20;;;;;;6056075;23;20170;-70